Aérodrome :
LOGIN :

S'inscrire | Disclaimer

   EN    FR    IT 

 










Légende :    VFR   VFR Marginal   IFR   IFR Intensif   IFR Très Intensif
Visi : 
Plafond : 
>= 8 km
>= 3000ft
5 à 8 km
1000 à 3000 ft
1500m à 5 km
500 à 1000 ft
800 à 1500m
200 à 500 ft
< 800m
< 200 ft
Symboles :   Orages  Brouillard  Fortes neiges  Fortes précipitations  Vent > 20 kt
SIGMETs :   Divers  Orages  Givrage  Turbulence  Onde Orograph.  Cendres Volcan.







- Altitude de l'aérodrome : 183 ft
- Code IATA : HAJ


EDDV - Hanover/Langenhagen Int.

DERNIER METAR :
  • 222150Z 06007KT CAVOK 05/M00 Q1017

METARs EXPIRÉS :
  • 222120Z 07006KT CAVOK 05/M00 Q1017 NOSIG
  • 222050Z 08007KT CAVOK 06/M01 Q1017 NOSIG
  • 222020Z 08008KT CAVOK 06/M02 Q1016 NOSIG
  • 221950Z 09008KT CAVOK 07/M01 Q1016 NOSIG
  • 221920Z 10009KT CAVOK 08/M02 Q1016 NOSIG
  • 221850Z 10007KT CAVOK 08/M03 Q1016 NOSIG

TAF TAF EDDV
Valide du 22 à 18h jusqu'au 23 à 18h UTC


221700Z 2218/2318 09009KT 9999 SCT025
PROB30
TEMPO 2306/2310 BKN014
Pas de NOTAMs connus pour ce terrain.



MET'MAP, la Météo Aéronautique d'un coup d'oeil ! - Copyright ORBIFLY Décembre 2007 - Disclaimer

ORBIFLY MET'MAP TEAM :

Programmation & Développement : Alexandra Zaïnal
Conception & Développement : Baudouin d'Aumeries
Co-Programmation & Développement : Marc-Olivier Méhu
Soutien technique & logistique : Manuel Goepfert

Contact : metmap@orbifly.com




SOURCES & CREDITS :

   NOAA